KDPA/DPA METAR and TAF weather

Enter ICAO airport designator
Station Type Date Time Source
KDPA METAR 2019/11/18 11:28 UTC NOAA

KDPA 181128Z 31005KT 2 1/2SM BR OVC004 01/00 A2979 RMK AO2 T00110000


Station Type Date Time Source
KDPA Decoded METAR 2019/11/18 11:28 UTC NOAA

CHICAGO/WEST CH DUPAGE, IL, United States (KDPA) 41-54N 88-15W 230M
Nov 18, 2019 - 06:28 AM EST / 2019.11.18 1128 UTC
Wind: from the NW (310 degrees) at 6 MPH (5 KT):0
Visibility: 2 1/2 mile(s):0
Sky conditions: overcast
Weather: mist
Temperature: 34.0 F (1.1 C)
Windchill: 28 F (-2 C):1
Dew Point: 32.0 F (0.0 C)
Relative Humidity: 92%
Pressure (altimeter): 29.79 in. Hg (1008 hPa)
ob: KDPA 181128Z 31005KT 2 1/2SM BR OVC004 01/00 A2979 RMK AO2 T00110000
cycle: 11

Station Type Date Time Source
KDPA TAF 2019/11/18 12:22 UTC NOAA

TAF KDPA 181120Z 1812/1912 29004KT P6SM OVC007
TEMPO 1812/1814 5SM BR
FM181600 28005KT P6SM OVC015 PROB30 1910/1912 4SM -RA BR OVC009

Example: see airport list